sensor_id;sensor_type;location;lat;lon;timestamp;P1;durP1;ratioP1;P2;durP2;ratioP2
13868;SDS011;7004;48.206;16.402;2024-01-15T00:00:25;16.37;;;8.80;;
13868;SDS011;7004;48.206;16.402;2024-01-15T00:02:51;15.20;;;8.80;;
13868;SDS011;7004;48.206;16.402;2024-01-15T00:05:17;12.27;;;8.00;;
13868;SDS011;7004;48.206;16.402;2024-01-15T00:07:44;16.57;;;8.97;;
13868;SDS011;7004;48.206;16.402;2024-01-15T00:10:10;16.77;;;8.57;;
13868;SDS011;7004;48.206;16.402;2024-01-15T00:12:37;14.37;;;8.90;;
13868;SDS011;7004;48.206;16.402;2024-01-15T00:15:04;16.80;;;8.77;;
13868;SDS011;7004;48.206;16.402;2024-01-15T00:17:30;13.70;;;8.50;;
13868;SDS011;7004;48.206;16.402;2024-01-15T00:19:57;14.63;;;8.53;;
13868;SDS011;7004;48.206;16.402;2024-01-15T00:22:25;13.70;;;8.77;;
13868;SDS011;7004;48.206;16.402;2024-01-15T00:24:51;13.93;;;8.00;;
13868;SDS011;7004;48.206;16.402;2024-01-15T00:27:17;16.07;;;8.37;;
13868;SDS011;7004;48.206;16.402;2024-01-15T00:29:44;14.43;;;7.83;;
13868;SDS011;7004;48.206;16.402;2024-01-15T00:32:10;14.13;;;7.70;;
13868;SDS011;7004;48.206;16.402;2024-01-15T00:34:36;12.80;;;7.33;;
13868;SDS011;7004;48.206;16.402;2024-01-15T00:37:02;17.07;;;9.83;;
13868;SDS011;7004;48.206;16.402;2024-01-15T00:39:29;16.67;;;8.23;;
13868;SDS011;7004;48.206;16.402;2024-01-15T00:41:55;12.60;;;7.80;;
13868;SDS011;7004;48.206;16.402;2024-01-15T00:44:23;15.80;;;8.97;;
13868;SDS011;7004;48.206;16.402;2024-01-15T00:46:49;16.57;;;9.10;;
13868;SDS011;7004;48.206;16.402;2024-01-15T00:49:15;17.40;;;8.83;;
13868;SDS011;7004;48.206;16.402;2024-01-15T00:51:41;13.57;;;8.13;;
13868;SDS011;7004;48.206;16.402;2024-01-15T00:54:08;14.70;;;7.93;;
13868;SDS011;7004;48.206;16.402;2024-01-15T00:56:34;16.07;;;9.17;;
13868;SDS011;7004;48.206;16.402;2024-01-15T00:59:00;14.30;;;8.60;;
13868;SDS011;7004;48.206;16.402;2024-01-15T01:01:26;14.97;;;8.90;;
13868;SDS011;7004;48.206;16.402;2024-01-15T01:03:52;15.23;;;8.70;;
13868;SDS011;7004;48.206;16.402;2024-01-15T01:06:18;14.93;;;8.43;;
13868;SDS011;7004;48.206;16.402;2024-01-15T01:08:44;14.50;;;8.63;;
13868;SDS011;7004;48.206;16.402;2024-01-15T01:11:14;16.43;;;8.57;;
13868;SDS011;7004;48.206;16.402;2024-01-15T01:13:41;11.33;;;8.10;;
13868;SDS011;7004;48.206;16.402;2024-01-15T01:16:07;11.90;;;7.17;;
13868;SDS011;7004;48.206;16.402;2024-01-15T01:18:34;15.53;;;8.30;;
13868;SDS011;7004;48.206;16.402;2024-01-15T01:21:00;13.43;;;8.73;;
13868;SDS011;7004;48.206;16.402;2024-01-15T01:23:27;12.17;;;7.80;;
13868;SDS011;7004;48.206;16.402;2024-01-15T01:25:53;13.77;;;8.30;;
13868;SDS011;7004;48.206;16.402;2024-01-15T01:28:19;15.57;;;9.00;;
13868;SDS011;7004;48.206;16.402;2024-01-15T01:30:45;14.37;;;8.03;;
13868;SDS011;7004;48.206;16.402;2024-01-15T01:33:11;14.47;;;8.33;;
13868;SDS011;7004;48.206;16.402;2024-01-15T01:35:37;15.10;;;8.20;;
13868;SDS011;7004;48.206;16.402;2024-01-15T01:38:03;15.03;;;8.57;;
13868;SDS011;7004;48.206;16.402;2024-01-15T01:40:30;12.13;;;7.50;;
13868;SDS011;7004;48.206;16.402;2024-01-15T01:42:56;17.37;;;9.13;;
13868;SDS011;7004;48.206;16.402;2024-01-15T01:45:22;13.50;;;8.10;;
13868;SDS011;7004;48.206;16.402;2024-01-15T01:47:48;12.73;;;7.33;;
13868;SDS011;7004;48.206;16.402;2024-01-15T01:50:14;14.50;;;8.47;;
13868;SDS011;7004;48.206;16.402;2024-01-15T01:52:42;13.43;;;8.53;;
13868;SDS011;7004;48.206;16.402;2024-01-15T01:55:09;12.63;;;7.73;;
13868;SDS011;7004;48.206;16.402;2024-01-15T01:57:37;12.57;;;7.73;;
13868;SDS011;7004;48.206;16.402;2024-01-15T02:00:04;14.63;;;8.20;;
13868;SDS011;7004;48.206;16.402;2024-01-15T02:02:32;13.60;;;7.80;;
13868;SDS011;7004;48.206;16.402;2024-01-15T02:04:58;16.70;;;8.37;;
13868;SDS011;7004;48.206;16.402;2024-01-15T02:07:25;15.40;;;7.93;;
13868;SDS011;7004;48.206;16.402;2024-01-15T02:09:51;13.00;;;8.17;;
13868;SDS011;7004;48.206;16.402;2024-01-15T02:12:17;13.13;;;8.07;;
13868;SDS011;7004;48.206;16.402;2024-01-15T02:14:43;13.37;;;8.47;;
13868;SDS011;7004;48.206;16.402;2024-01-15T02:17:09;16.77;;;8.50;;
13868;SDS011;7004;48.206;16.402;2024-01-15T02:19:35;16.57;;;8.67;;
13868;SDS011;7004;48.206;16.402;2024-01-15T02:22:01;14.70;;;8.30;;
13868;SDS011;7004;48.206;16.402;2024-01-15T02:24:27;16.07;;;8.00;;
13868;SDS011;7004;48.206;16.402;2024-01-15T02:26:54;11.30;;;7.53;;
13868;SDS011;7004;48.206;16.402;2024-01-15T02:29:20;14.63;;;8.40;;
13868;SDS011;7004;48.206;16.402;2024-01-15T02:31:46;16.97;;;9.30;;
13868;SDS011;7004;48.206;16.402;2024-01-15T02:34:12;15.57;;;9.10;;
13868;SDS011;7004;48.206;16.402;2024-01-15T02:36:39;15.83;;;8.63;;
13868;SDS011;7004;48.206;16.402;2024-01-15T02:39:05;16.83;;;9.13;;
13868;SDS011;7004;48.206;16.402;2024-01-15T02:41:31;15.30;;;8.53;;
13868;SDS011;7004;48.206;16.402;2024-01-15T02:43:57;17.57;;;9.00;;
13868;SDS011;7004;48.206;16.402;2024-01-15T02:46:23;16.27;;;8.83;;
13868;SDS011;7004;48.206;16.402;2024-01-15T02:48:49;15.83;;;9.27;;
13868;SDS011;7004;48.206;16.402;2024-01-15T02:51:15;16.87;;;8.80;;
13868;SDS011;7004;48.206;16.402;2024-01-15T02:53:41;14.37;;;9.50;;
13868;SDS011;7004;48.206;16.402;2024-01-15T02:56:07;15.97;;;9.23;;
13868;SDS011;7004;48.206;16.402;2024-01-15T02:58:33;15.77;;;8.83;;
13868;SDS011;7004;48.206;16.402;2024-01-15T03:00:59;17.07;;;9.17;;
13868;SDS011;7004;48.206;16.402;2024-01-15T03:03:25;17.20;;;9.30;;
13868;SDS011;7004;48.206;16.402;2024-01-15T03:05:51;16.13;;;9.00;;
13868;SDS011;7004;48.206;16.402;2024-01-15T03:08:17;16.90;;;9.63;;
13868;SDS011;7004;48.206;16.402;2024-01-15T03:10:43;18.97;;;9.37;;
13868;SDS011;7004;48.206;16.402;2024-01-15T03:13:11;18.93;;;10.63;;
13868;SDS011;7004;48.206;16.402;2024-01-15T03:15:38;20.97;;;10.07;;
13868;SDS011;7004;48.206;16.402;2024-01-15T03:18:05;15.00;;;8.93;;
13868;SDS011;7004;48.206;16.402;2024-01-15T03:20:34;15.83;;;9.30;;
13868;SDS011;7004;48.206;16.402;2024-01-15T03:23:02;20.70;;;9.80;;
13868;SDS011;7004;48.206;16.402;2024-01-15T03:25:32;17.53;;;9.93;;
13868;SDS011;7004;48.206;16.402;2024-01-15T03:28:05;17.37;;;9.77;;
13868;SDS011;7004;48.206;16.402;2024-01-15T03:30:33;17.03;;;10.20;;
13868;SDS011;7004;48.206;16.402;2024-01-15T03:33:00;17.63;;;10.40;;
13868;SDS011;7004;48.206;16.402;2024-01-15T03:35:26;24.23;;;9.70;;
13868;SDS011;7004;48.206;16.402;2024-01-15T03:37:54;20.77;;;9.73;;
13868;SDS011;7004;48.206;16.402;2024-01-15T03:40:21;19.50;;;10.17;;
13868;SDS011;7004;48.206;16.402;2024-01-15T03:42:47;17.57;;;10.10;;
13868;SDS011;7004;48.206;16.402;2024-01-15T03:45:15;17.83;;;10.50;;
13868;SDS011;7004;48.206;16.402;2024-01-15T03:47:41;17.80;;;10.00;;
13868;SDS011;7004;48.206;16.402;2024-01-15T03:50:07;20.40;;;10.93;;
13868;SDS011;7004;48.206;16.402;2024-01-15T03:52:34;20.43;;;11.63;;
13868;SDS011;7004;48.206;16.402;2024-01-15T03:55:00;20.17;;;11.63;;
13868;SDS011;7004;48.206;16.402;2024-01-15T03:57:26;19.17;;;11.57;;
13868;SDS011;7004;48.206;16.402;2024-01-15T03:59:52;19.77;;;11.00;;
13868;SDS011;7004;48.206;16.402;2024-01-15T04:02:18;23.60;;;11.77;;
13868;SDS011;7004;48.206;16.402;2024-01-15T04:04:45;21.63;;;11.93;;
13868;SDS011;7004;48.206;16.402;2024-01-15T04:07:11;23.03;;;12.60;;
13868;SDS011;7004;48.206;16.402;2024-01-15T04:09:37;19.63;;;11.57;;
13868;SDS011;7004;48.206;16.402;2024-01-15T04:12:05;21.17;;;12.10;;
13868;SDS011;7004;48.206;16.402;2024-01-15T04:14:31;22.87;;;12.73;;
13868;SDS011;7004;48.206;16.402;2024-01-15T04:16:57;24.63;;;11.73;;
13868;SDS011;7004;48.206;16.402;2024-01-15T04:19:24;20.37;;;10.97;;
13868;SDS011;7004;48.206;16.402;2024-01-15T04:21:50;18.40;;;11.20;;
13868;SDS011;7004;48.206;16.402;2024-01-15T04:24:17;21.03;;;11.57;;
13868;SDS011;7004;48.206;16.402;2024-01-15T04:26:43;17.00;;;9.73;;
13868;SDS011;7004;48.206;16.402;2024-01-15T04:29:10;18.20;;;10.37;;
13868;SDS011;7004;48.206;16.402;2024-01-15T04:31:36;19.07;;;10.43;;
13868;SDS011;7004;48.206;16.402;2024-01-15T04:34:02;21.00;;;11.03;;
13868;SDS011;7004;48.206;16.402;2024-01-15T04:36:28;21.43;;;11.57;;
13868;SDS011;7004;48.206;16.402;2024-01-15T04:38:54;18.53;;;11.50;;
13868;SDS011;7004;48.206;16.402;2024-01-15T04:41:20;18.03;;;10.27;;
13868;SDS011;7004;48.206;16.402;2024-01-15T04:43:46;19.47;;;10.43;;
13868;SDS011;7004;48.206;16.402;2024-01-15T04:46:12;16.90;;;10.23;;
13868;SDS011;7004;48.206;16.402;2024-01-15T04:48:38;18.20;;;10.33;;
13868;SDS011;7004;48.206;16.402;2024-01-15T04:51:05;20.70;;;11.93;;
13868;SDS011;7004;48.206;16.402;2024-01-15T04:53:34;21.00;;;11.67;;
13868;SDS011;7004;48.206;16.402;2024-01-15T04:56:00;18.50;;;11.90;;
13868;SDS011;7004;48.206;16.402;2024-01-15T04:58:26;24.07;;;13.07;;
13868;SDS011;7004;48.206;16.402;2024-01-15T05:00:52;21.30;;;12.90;;
13868;SDS011;7004;48.206;16.402;2024-01-15T05:03:19;19.87;;;11.67;;
13868;SDS011;7004;48.206;16.402;2024-01-15T05:05:46;20.40;;;11.87;;
13868;SDS011;7004;48.206;16.402;2024-01-15T05:08:12;20.97;;;11.90;;
13868;SDS011;7004;48.206;16.402;2024-01-15T05:10:38;21.03;;;12.80;;
13868;SDS011;7004;48.206;16.402;2024-01-15T05:13:04;23.37;;;13.03;;
13868;SDS011;7004;48.206;16.402;2024-01-15T05:15:30;19.93;;;11.87;;
13868;SDS011;7004;48.206;16.402;2024-01-15T05:17:56;21.43;;;12.37;;
13868;SDS011;7004;48.206;16.402;2024-01-15T05:20:22;20.43;;;11.80;;
13868;SDS011;7004;48.206;16.402;2024-01-15T05:22:49;20.93;;;12.40;;
13868;SDS011;7004;48.206;16.402;2024-01-15T05:25:15;21.70;;;12.83;;
13868;SDS011;7004;48.206;16.402;2024-01-15T05:27:41;23.33;;;12.30;;
13868;SDS011;7004;48.206;16.402;2024-01-15T05:30:07;19.93;;;11.47;;
13868;SDS011;7004;48.206;16.402;2024-01-15T05:32:34;22.53;;;12.00;;
13868;SDS011;7004;48.206;16.402;2024-01-15T05:35:00;20.60;;;12.00;;
13868;SDS011;7004;48.206;16.402;2024-01-15T05:37:28;18.03;;;11.27;;
13868;SDS011;7004;48.206;16.402;2024-01-15T05:39:54;21.13;;;11.40;;
13868;SDS011;7004;48.206;16.402;2024-01-15T05:42:20;19.43;;;11.73;;
13868;SDS011;7004;48.206;16.402;2024-01-15T05:44:46;17.60;;;10.57;;
13868;SDS011;7004;48.206;16.402;2024-01-15T05:47:12;22.30;;;12.03;;
13868;SDS011;7004;48.206;16.402;2024-01-15T05:49:38;21.60;;;12.00;;
13868;SDS011;7004;48.206;16.402;2024-01-15T05:52:04;23.83;;;12.10;;
13868;SDS011;7004;48.206;16.402;2024-01-15T05:54:30;19.93;;;10.83;;
13868;SDS011;7004;48.206;16.402;2024-01-15T05:56:56;18.23;;;11.33;;
13868;SDS011;7004;48.206;16.402;2024-01-15T05:59:22;20.07;;;11.53;;
13868;SDS011;7004;48.206;16.402;2024-01-15T06:01:48;23.13;;;11.73;;
13868;SDS011;7004;48.206;16.402;2024-01-15T06:04:14;18.33;;;11.30;;
13868;SDS011;7004;48.206;16.402;2024-01-15T06:06:40;19.53;;;10.47;;
13868;SDS011;7004;48.206;16.402;2024-01-15T06:09:07;17.87;;;10.07;;
13868;SDS011;7004;48.206;16.402;2024-01-15T06:11:35;18.00;;;9.97;;
13868;SDS011;7004;48.206;16.402;2024-01-15T06:14:01;16.53;;;9.37;;
13868;SDS011;7004;48.206;16.402;2024-01-15T06:16:28;17.17;;;9.23;;
13868;SDS011;7004;48.206;16.402;2024-01-15T06:18:54;16.50;;;9.13;;
13868;SDS011;7004;48.206;16.402;2024-01-15T06:21:21;13.70;;;8.30;;
13868;SDS011;7004;48.206;16.402;2024-01-15T06:23:47;15.03;;;8.57;;
13868;SDS011;7004;48.206;16.402;2024-01-15T06:26:13;16.37;;;9.27;;
13868;SDS011;7004;48.206;16.402;2024-01-15T06:28:39;17.67;;;9.33;;
13868;SDS011;7004;48.206;16.402;2024-01-15T06:31:06;14.77;;;8.67;;
13868;SDS011;7004;48.206;16.402;2024-01-15T06:33:32;14.93;;;8.97;;
13868;SDS011;7004;48.206;16.402;2024-01-15T06:35:58;13.50;;;9.20;;
13868;SDS011;7004;48.206;16.402;2024-01-15T06:38:25;18.00;;;9.43;;
13868;SDS011;7004;48.206;16.402;2024-01-15T06:40:51;15.80;;;9.47;;
13868;SDS011;7004;48.206;16.402;2024-01-15T06:43:17;16.97;;;9.27;;
13868;SDS011;7004;48.206;16.402;2024-01-15T06:45:44;21.07;;;10.00;;
13868;SDS011;7004;48.206;16.402;2024-01-15T06:48:10;18.43;;;9.47;;
13868;SDS011;7004;48.206;16.402;2024-01-15T06:50:40;17.80;;;9.70;;
13868;SDS011;7004;48.206;16.402;2024-01-15T06:53:06;16.53;;;8.67;;
13868;SDS011;7004;48.206;16.402;2024-01-15T06:55:32;20.73;;;8.37;;
13868;SDS011;7004;48.206;16.402;2024-01-15T06:57:58;15.90;;;9.47;;
13868;SDS011;7004;48.206;16.402;2024-01-15T07:00:24;18.47;;;9.90;;
13868;SDS011;7004;48.206;16.402;2024-01-15T07:02:51;19.83;;;9.10;;
13868;SDS011;7004;48.206;16.402;2024-01-15T07:05:17;15.43;;;9.43;;
13868;SDS011;7004;48.206;16.402;2024-01-15T07:07:43;15.50;;;9.77;;
13868;SDS011;7004;48.206;16.402;2024-01-15T07:10:09;16.37;;;9.53;;
13868;SDS011;7004;48.206;16.402;2024-01-15T07:12:35;14.33;;;8.73;;
13868;SDS011;7004;48.206;16.402;2024-01-15T07:15:01;12.87;;;8.07;;
13868;SDS011;7004;48.206;16.402;2024-01-15T07:17:29;13.87;;;8.23;;
13868;SDS011;7004;48.206;16.402;2024-01-15T07:19:56;19.53;;;9.80;;
13868;SDS011;7004;48.206;16.402;2024-01-15T07:22:22;14.23;;;8.47;;
13868;SDS011;7004;48.206;16.402;2024-01-15T07:24:49;14.73;;;8.40;;
13868;SDS011;7004;48.206;16.402;2024-01-15T07:27:15;16.27;;;8.80;;
13868;SDS011;7004;48.206;16.402;2024-01-15T07:29:43;21.50;;;9.50;;
13868;SDS011;7004;48.206;16.402;2024-01-15T07:32:09;18.27;;;9.00;;
13868;SDS011;7004;48.206;16.402;2024-01-15T07:34:36;13.27;;;8.57;;
13868;SDS011;7004;48.206;16.402;2024-01-15T07:37:02;13.17;;;8.40;;
13868;SDS011;7004;48.206;16.402;2024-01-15T07:39:28;13.73;;;8.27;;
13868;SDS011;7004;48.206;16.402;2024-01-15T07:41:55;16.73;;;9.07;;
13868;SDS011;7004;48.206;16.402;2024-01-15T07:44:21;12.00;;;7.83;;
13868;SDS011;7004;48.206;16.402;2024-01-15T07:46:48;14.60;;;9.23;;
13868;SDS011;7004;48.206;16.402;2024-01-15T07:49:14;14.40;;;7.80;;
13868;SDS011;7004;48.206;16.402;2024-01-15T07:51:40;14.17;;;8.50;;
13868;SDS011;7004;48.206;16.402;2024-01-15T07:54:06;16.80;;;8.73;;
13868;SDS011;7004;48.206;16.402;2024-01-15T07:56:32;13.87;;;8.77;;
13868;SDS011;7004;48.206;16.402;2024-01-15T07:58:58;13.30;;;8.47;;
13868;SDS011;7004;48.206;16.402;2024-01-15T08:01:25;17.90;;;9.63;;
13868;SDS011;7004;48.206;16.402;2024-01-15T08:03:51;17.43;;;8.50;;
13868;SDS011;7004;48.206;16.402;2024-01-15T08:06:18;18.70;;;11.53;;
13868;SDS011;7004;48.206;16.402;2024-01-15T08:08:45;13.90;;;8.33;;
13868;SDS011;7004;48.206;16.402;2024-01-15T08:11:11;15.33;;;8.83;;
13868;SDS011;7004;48.206;16.402;2024-01-15T08:13:37;14.47;;;8.60;;
13868;SDS011;7004;48.206;16.402;2024-01-15T08:16:03;17.57;;;9.60;;
13868;SDS011;7004;48.206;16.402;2024-01-15T08:18:29;14.57;;;9.00;;
13868;SDS011;7004;48.206;16.402;2024-01-15T08:20:55;13.83;;;8.33;;
13868;SDS011;7004;48.206;16.402;2024-01-15T08:23:22;15.33;;;8.50;;
13868;SDS011;7004;48.206;16.402;2024-01-15T08:25:49;15.63;;;7.87;;
13868;SDS011;7004;48.206;16.402;2024-01-15T08:28:16;15.23;;;8.63;;
13868;SDS011;7004;48.206;16.402;2024-01-15T08:30:42;15.40;;;8.23;;
13868;SDS011;7004;48.206;16.402;2024-01-15T08:33:08;17.70;;;9.40;;
13868;SDS011;7004;48.206;16.402;2024-01-15T08:35:34;12.20;;;8.07;;
13868;SDS011;7004;48.206;16.402;2024-01-15T08:38:00;15.30;;;8.20;;
13868;SDS011;7004;48.206;16.402;2024-01-15T08:40:26;12.20;;;8.50;;
13868;SDS011;7004;48.206;16.402;2024-01-15T08:42:52;14.60;;;8.00;;
13868;SDS011;7004;48.206;16.402;2024-01-15T08:45:18;14.77;;;7.63;;
13868;SDS011;7004;48.206;16.402;2024-01-15T08:47:45;13.17;;;7.70;;
13868;SDS011;7004;48.206;16.402;2024-01-15T08:50:11;12.83;;;8.27;;
13868;SDS011;7004;48.206;16.402;2024-01-15T08:52:37;9.63;;;6.23;;
13868;SDS011;7004;48.206;16.402;2024-01-15T08:55:03;11.63;;;7.07;;
13868;SDS011;7004;48.206;16.402;2024-01-15T08:57:30;13.00;;;7.20;;
13868;SDS011;7004;48.206;16.402;2024-01-15T08:59:56;14.87;;;7.83;;
13868;SDS011;7004;48.206;16.402;2024-01-15T09:02:22;10.07;;;6.93;;
13868;SDS011;7004;48.206;16.402;2024-01-15T09:04:48;13.07;;;7.33;;
13868;SDS011;7004;48.206;16.402;2024-01-15T09:07:14;11.40;;;7.00;;
13868;SDS011;7004;48.206;16.402;2024-01-15T09:09:40;12.63;;;6.77;;
13868;SDS011;7004;48.206;16.402;2024-01-15T09:12:07;10.73;;;6.60;;
13868;SDS011;7004;48.206;16.402;2024-01-15T09:14:34;12.53;;;6.70;;
13868;SDS011;7004;48.206;16.402;2024-01-15T09:17:01;9.67;;;6.37;;
13868;SDS011;7004;48.206;16.402;2024-01-15T09:19:28;11.33;;;6.70;;
13868;SDS011;7004;48.206;16.402;2024-01-15T09:21:56;10.77;;;6.47;;
13868;SDS011;7004;48.206;16.402;2024-01-15T09:24:22;9.07;;;6.37;;
13868;SDS011;7004;48.206;16.402;2024-01-15T09:26:48;10.27;;;6.30;;
13868;SDS011;7004;48.206;16.402;2024-01-15T09:29:14;8.00;;;5.67;;
13868;SDS011;7004;48.206;16.402;2024-01-15T09:31:41;9.80;;;5.73;;
13868;SDS011;7004;48.206;16.402;2024-01-15T09:34:07;10.17;;;5.93;;
13868;SDS011;7004;48.206;16.402;2024-01-15T09:36:38;8.63;;;5.90;;
13868;SDS011;7004;48.206;16.402;2024-01-15T09:39:06;10.10;;;6.40;;
13868;SDS011;7004;48.206;16.402;2024-01-15T09:41:34;11.23;;;6.60;;
13868;SDS011;7004;48.206;16.402;2024-01-15T09:44:03;10.40;;;6.00;;
13868;SDS011;7004;48.206;16.402;2024-01-15T09:46:33;9.93;;;6.33;;
13868;SDS011;7004;48.206;16.402;2024-01-15T09:49:00;12.40;;;6.07;;
13868;SDS011;7004;48.206;16.402;2024-01-15T09:51:28;11.57;;;6.30;;
13868;SDS011;7004;48.206;16.402;2024-01-15T09:53:57;10.37;;;6.50;;
13868;SDS011;7004;48.206;16.402;2024-01-15T09:56:24;8.63;;;5.87;;
13868;SDS011;7004;48.206;16.402;2024-01-15T09:58:50;8.73;;;6.20;;
13868;SDS011;7004;48.206;16.402;2024-01-15T10:01:18;9.60;;;6.00;;
13868;SDS011;7004;48.206;16.402;2024-01-15T10:03:46;11.67;;;6.27;;
13868;SDS011;7004;48.206;16.402;2024-01-15T10:06:16;10.23;;;6.07;;
13868;SDS011;7004;48.206;16.402;2024-01-15T10:08:48;12.93;;;6.60;;
13868;SDS011;7004;48.206;16.402;2024-01-15T10:11:16;11.53;;;6.47;;
13868;SDS011;7004;48.206;16.402;2024-01-15T10:13:46;9.27;;;6.40;;
13868;SDS011;7004;48.206;16.402;2024-01-15T10:16:16;9.17;;;5.93;;
13868;SDS011;7004;48.206;16.402;2024-01-15T10:18:42;10.77;;;5.73;;
13868;SDS011;7004;48.206;16.402;2024-01-15T10:21:08;9.60;;;6.87;;
13868;SDS011;7004;48.206;16.402;2024-01-15T10:23:34;8.40;;;5.67;;
13868;SDS011;7004;48.206;16.402;2024-01-15T10:26:01;8.87;;;5.67;;
13868;SDS011;7004;48.206;16.402;2024-01-15T10:28:29;10.33;;;6.13;;
13868;SDS011;7004;48.206;16.402;2024-01-15T10:30:57;11.27;;;6.30;;
13868;SDS011;7004;48.206;16.402;2024-01-15T10:33:25;9.37;;;6.20;;
13868;SDS011;7004;48.206;16.402;2024-01-15T10:35:55;7.93;;;5.37;;
13868;SDS011;7004;48.206;16.402;2024-01-15T10:38:24;8.73;;;5.77;;
13868;SDS011;7004;48.206;16.402;2024-01-15T10:40:51;9.10;;;5.43;;
13868;SDS011;7004;48.206;16.402;2024-01-15T10:43:21;7.80;;;4.93;;
13868;SDS011;7004;48.206;16.402;2024-01-15T10:45:51;8.67;;;4.90;;
13868;SDS011;7004;48.206;16.402;2024-01-15T10:48:17;7.67;;;5.17;;
13868;SDS011;7004;48.206;16.402;2024-01-15T10:50:47;15.83;;;6.33;;
13868;SDS011;7004;48.206;16.402;2024-01-15T10:53:16;6.83;;;4.67;;
13868;SDS011;7004;48.206;16.402;2024-01-15T10:55:42;8.33;;;5.00;;
13868;SDS011;7004;48.206;16.402;2024-01-15T10:58:09;11.23;;;4.83;;
13868;SDS011;7004;48.206;16.402;2024-01-15T11:00:35;7.80;;;4.90;;
13868;SDS011;7004;48.206;16.402;2024-01-15T11:03:06;10.00;;;5.10;;
13868;SDS011;7004;48.206;16.402;2024-01-15T11:05:33;6.93;;;5.10;;
13868;SDS011;7004;48.206;16.402;2024-01-15T11:08:07;7.20;;;4.60;;
13868;SDS011;7004;48.206;16.402;2024-01-15T11:16:03;6.37;;;4.67;;
13868;SDS011;7004;48.206;16.402;2024-01-15T11:18:36;4.57;;;3.97;;
13868;SDS011;7004;48.206;16.402;2024-01-15T11:23:48;7.10;;;4.93;;
13868;SDS011;7004;48.206;16.402;2024-01-15T11:26:28;6.03;;;4.53;;
13868;SDS011;7004;48.206;16.402;2024-01-15T11:28:58;9.20;;;4.77;;
13868;SDS011;7004;48.206;16.402;2024-01-15T11:31:30;8.13;;;5.63;;
13868;SDS011;7004;48.206;16.402;2024-01-15T11:34:15;6.97;;;4.53;;
13868;SDS011;7004;48.206;16.402;2024-01-15T11:42:01;5.97;;;4.63;;
13868;SDS011;7004;48.206;16.402;2024-01-15T11:44:29;5.77;;;4.30;;
13868;SDS011;7004;48.206;16.402;2024-01-15T11:47:02;5.53;;;4.40;;
13868;SDS011;7004;48.206;16.402;2024-01-15T11:52:20;8.27;;;4.00;;
13868;SDS011;7004;48.206;16.402;2024-01-15T11:57:51;8.87;;;5.00;;
13868;SDS011;7004;48.206;16.402;2024-01-15T12:00:19;11.17;;;5.10;;
13868;SDS011;7004;48.206;16.402;2024-01-15T12:02:48;7.13;;;4.80;;
13868;SDS011;7004;48.206;16.402;2024-01-15T12:05:16;5.00;;;4.03;;
13868;SDS011;7004;48.206;16.402;2024-01-15T12:07:45;5.33;;;4.17;;
13868;SDS011;7004;48.206;16.402;2024-01-15T12:10:14;6.93;;;4.53;;
13868;SDS011;7004;48.206;16.402;2024-01-15T12:12:54;6.47;;;4.90;;
13868;SDS011;7004;48.206;16.402;2024-01-15T12:15:31;11.07;;;4.70;;
13868;SDS011;7004;48.206;16.402;2024-01-15T12:17:58;6.23;;;4.23;;
13868;SDS011;7004;48.206;16.402;2024-01-15T12:20:28;6.63;;;4.50;;
13868;SDS011;7004;48.206;16.402;2024-01-15T12:22:57;6.60;;;4.03;;
13868;SDS011;7004;48.206;16.402;2024-01-15T12:25:24;7.47;;;4.63;;
13868;SDS011;7004;48.206;16.402;2024-01-15T12:27:54;6.60;;;4.60;;
13868;SDS011;7004;48.206;16.402;2024-01-15T12:30:21;6.67;;;4.67;;
13868;SDS011;7004;48.206;16.402;2024-01-15T12:32:48;7.73;;;5.30;;
13868;SDS011;7004;48.206;16.402;2024-01-15T12:35:14;5.83;;;4.37;;
13868;SDS011;7004;48.206;16.402;2024-01-15T12:37:41;7.13;;;4.50;;
13868;SDS011;7004;48.206;16.402;2024-01-15T12:40:09;7.57;;;5.00;;
13868;SDS011;7004;48.206;16.402;2024-01-15T12:42:36;7.07;;;4.43;;
13868;SDS011;7004;48.206;16.402;2024-01-15T12:45:05;6.30;;;4.27;;
13868;SDS011;7004;48.206;16.402;2024-01-15T12:47:32;6.87;;;4.00;;
13868;SDS011;7004;48.206;16.402;2024-01-15T12:49:59;6.20;;;4.47;;
13868;SDS011;7004;48.206;16.402;2024-01-15T12:52:28;5.27;;;4.00;;
13868;SDS011;7004;48.206;16.402;2024-01-15T12:54:55;5.40;;;4.47;;
13868;SDS011;7004;48.206;16.402;2024-01-15T12:57:21;6.60;;;4.10;;
13868;SDS011;7004;48.206;16.402;2024-01-15T12:59:48;5.40;;;4.03;;
13868;SDS011;7004;48.206;16.402;2024-01-15T13:02:15;5.30;;;3.77;;
13868;SDS011;7004;48.206;16.402;2024-01-15T13:04:42;5.97;;;3.73;;
13868;SDS011;7004;48.206;16.402;2024-01-15T13:07:08;4.67;;;3.80;;
13868;SDS011;7004;48.206;16.402;2024-01-15T13:09:34;6.40;;;3.87;;
13868;SDS011;7004;48.206;16.402;2024-01-15T13:12:04;5.97;;;3.97;;
13868;SDS011;7004;48.206;16.402;2024-01-15T13:14:31;9.07;;;4.00;;
13868;SDS011;7004;48.206;16.402;2024-01-15T13:17:00;5.83;;;3.87;;
13868;SDS011;7004;48.206;16.402;2024-01-15T13:19:26;12.97;;;4.27;;
13868;SDS011;7004;48.206;16.402;2024-01-15T13:21:52;5.43;;;3.73;;
13868;SDS011;7004;48.206;16.402;2024-01-15T13:24:19;5.37;;;3.90;;
13868;SDS011;7004;48.206;16.402;2024-01-15T13:26:46;7.17;;;3.80;;
13868;SDS011;7004;48.206;16.402;2024-01-15T13:29:13;6.77;;;3.73;;
13868;SDS011;7004;48.206;16.402;2024-01-15T13:31:40;5.23;;;3.53;;
13868;SDS011;7004;48.206;16.402;2024-01-15T13:34:06;5.77;;;3.73;;
13868;SDS011;7004;48.206;16.402;2024-01-15T13:36:33;5.03;;;3.60;;
13868;SDS011;7004;48.206;16.402;2024-01-15T13:38:59;4.60;;;3.30;;
13868;SDS011;7004;48.206;16.402;2024-01-15T13:41:25;4.53;;;3.87;;
13868;SDS011;7004;48.206;16.402;2024-01-15T13:43:55;6.60;;;3.60;;
13868;SDS011;7004;48.206;16.402;2024-01-15T13:46:23;4.97;;;3.40;;
13868;SDS011;7004;48.206;16.402;2024-01-15T13:48:54;12.07;;;3.40;;
13868;SDS011;7004;48.206;16.402;2024-01-15T13:51:24;7.90;;;3.00;;
13868;SDS011;7004;48.206;16.402;2024-01-15T13:53:50;4.87;;;3.57;;
13868;SDS011;7004;48.206;16.402;2024-01-15T13:56:17;5.13;;;3.30;;
13868;SDS011;7004;48.206;16.402;2024-01-15T13:58:43;6.87;;;3.87;;
13868;SDS011;7004;48.206;16.402;2024-01-15T14:01:09;5.03;;;3.30;;
13868;SDS011;7004;48.206;16.402;2024-01-15T14:03:36;4.63;;;3.03;;
13868;SDS011;7004;48.206;16.402;2024-01-15T14:06:02;5.10;;;3.53;;
13868;SDS011;7004;48.206;16.402;2024-01-15T14:08:29;4.63;;;3.23;;
13868;SDS011;7004;48.206;16.402;2024-01-15T14:10:55;3.33;;;2.87;;
13868;SDS011;7004;48.206;16.402;2024-01-15T14:13:22;4.27;;;2.90;;
13868;SDS011;7004;48.206;16.402;2024-01-15T14:15:48;8.40;;;3.37;;
13868;SDS011;7004;48.206;16.402;2024-01-15T14:18:16;4.40;;;3.27;;
13868;SDS011;7004;48.206;16.402;2024-01-15T14:20:42;3.97;;;2.80;;
13868;SDS011;7004;48.206;16.402;2024-01-15T14:23:09;4.83;;;3.23;;
13868;SDS011;7004;48.206;16.402;2024-01-15T14:25:35;5.63;;;3.27;;
13868;SDS011;7004;48.206;16.402;2024-01-15T14:28:01;4.40;;;3.00;;
13868;SDS011;7004;48.206;16.402;2024-01-15T14:30:27;5.30;;;3.20;;
13868;SDS011;7004;48.206;16.402;2024-01-15T14:32:53;7.50;;;3.40;;
13868;SDS011;7004;48.206;16.402;2024-01-15T14:35:19;8.37;;;2.93;;
13868;SDS011;7004;48.206;16.402;2024-01-15T14:37:46;4.83;;;2.97;;
13868;SDS011;7004;48.206;16.402;2024-01-15T14:40:14;4.53;;;2.83;;
13868;SDS011;7004;48.206;16.402;2024-01-15T14:42:43;4.57;;;3.20;;
13868;SDS011;7004;48.206;16.402;2024-01-15T14:45:09;5.37;;;3.10;;
13868;SDS011;7004;48.206;16.402;2024-01-15T14:47:39;4.60;;;3.00;;
13868;SDS011;7004;48.206;16.402;2024-01-15T14:50:06;5.50;;;3.00;;
13868;SDS011;7004;48.206;16.402;2024-01-15T14:52:35;4.33;;;3.10;;